San Diego, California
Traffic Map
Current Weather Conditions
San Diego, California
Broken Clouds
Broken Clouds
72°
Feels Like: 72°
Wind Chill: 72° Ceiling: 25000
Heat Index: 72° Visibility: 10mi
Dew Point: 64° Wind: 5mph
Humidity: 76% Direction: 300° (WNW)
Pressure: 29.88in Gusts: 0mph
Raw Report DataKSAN 310351Z 30004KT 10SM FEW015 SCT200 BKN250 22/18 A2988 RMK AO2 SLP118 T02220178 $
Traffic Incident Summary
Active as of:
Severity:
Category:
InformationThere was an issue retrieving the traffic information for this location. Please try a different location or try again shortly.
Advertisements
Track Severe Weather on mobile